sensor_id;sensor_type;location;lat;lon;timestamp;temperature;humidity
25945;SHT31;13742;49.306;8.636;2023-04-22T00:00:21;12.83;81.03
25945;SHT31;13742;49.306;8.636;2023-04-22T00:01:23;12.81;80.85
25945;SHT31;13742;49.306;8.636;2023-04-22T00:02:22;12.83;80.79
25945;SHT31;13742;49.306;8.636;2023-04-22T00:03:24;12.83;80.76
25945;SHT31;13742;49.306;8.636;2023-04-22T00:04:21;12.80;80.58
25945;SHT31;13742;49.306;8.636;2023-04-22T00:05:21;12.81;80.54
25945;SHT31;13742;49.306;8.636;2023-04-22T00:06:21;12.81;80.52
25945;SHT31;13742;49.306;8.636;2023-04-22T00:07:21;12.80;80.43
25945;SHT31;13742;49.306;8.636;2023-04-22T00:08:21;12.79;80.41
25945;SHT31;13742;49.306;8.636;2023-04-22T00:09:21;12.79;80.49
25945;SHT31;13742;49.306;8.636;2023-04-22T00:10:21;12.77;80.61
25945;SHT31;13742;49.306;8.636;2023-04-22T00:11:21;12.77;80.56
25945;SHT31;13742;49.306;8.636;2023-04-22T00:12:21;12.73;80.79
25945;SHT31;13742;49.306;8.636;2023-04-22T00:13:21;12.76;80.94
25945;SHT31;13742;49.306;8.636;2023-04-22T00:14:21;12.76;80.77
25945;SHT31;13742;49.306;8.636;2023-04-22T00:15:21;12.74;80.94
25945;SHT31;13742;49.306;8.636;2023-04-22T00:16:21;12.73;81.17
25945;SHT31;13742;49.306;8.636;2023-04-22T00:17:21;12.72;81.23
25945;SHT31;13742;49.306;8.636;2023-04-22T00:18:21;12.66;81.21
25945;SHT31;13742;49.306;8.636;2023-04-22T00:19:21;12.64;81.46
25945;SHT31;13742;49.306;8.636;2023-04-22T00:20:21;12.64;81.49
25945;SHT31;13742;49.306;8.636;2023-04-22T00:21:21;12.62;81.41
25945;SHT31;13742;49.306;8.636;2023-04-22T00:22:21;12.67;81.57
25945;SHT31;13742;49.306;8.636;2023-04-22T00:23:21;12.63;81.62
25945;SHT31;13742;49.306;8.636;2023-04-22T00:24:21;12.60;82.02
25945;SHT31;13742;49.306;8.636;2023-04-22T00:25:21;12.59;81.87
25945;SHT31;13742;49.306;8.636;2023-04-22T00:26:21;12.56;82.17
25945;SHT31;13742;49.306;8.636;2023-04-22T00:27:21;12.60;82.39
25945;SHT31;13742;49.306;8.636;2023-04-22T00:28:21;12.57;82.11
25945;SHT31;13742;49.306;8.636;2023-04-22T00:29:21;12.53;82.19
25945;SHT31;13742;49.306;8.636;2023-04-22T00:30:21;12.52;82.35
25945;SHT31;13742;49.306;8.636;2023-04-22T00:31:21;12.51;82.41
25945;SHT31;13742;49.306;8.636;2023-04-22T00:32:21;12.51;82.45
25945;SHT31;13742;49.306;8.636;2023-04-22T00:33:21;12.48;82.15
25945;SHT31;13742;49.306;8.636;2023-04-22T00:34:21;12.48;82.15
25945;SHT31;13742;49.306;8.636;2023-04-22T00:35:21;12.49;82.24
25945;SHT31;13742;49.306;8.636;2023-04-22T00:36:21;12.51;82.38
25945;SHT31;13742;49.306;8.636;2023-04-22T00:37:21;12.49;82.43
25945;SHT31;13742;49.306;8.636;2023-04-22T00:38:21;12.49;82.35
25945;SHT31;13742;49.306;8.636;2023-04-22T00:39:21;12.49;82.24
25945;SHT31;13742;49.306;8.636;2023-04-22T00:40:21;12.49;82.14
25945;SHT31;13742;49.306;8.636;2023-04-22T00:41:21;12.48;82.11
25945;SHT31;13742;49.306;8.636;2023-04-22T00:42:21;12.49;81.85
25945;SHT31;13742;49.306;8.636;2023-04-22T00:43:21;12.49;81.87
25945;SHT31;13742;49.306;8.636;2023-04-22T00:44:21;12.49;81.76
25945;SHT31;13742;49.306;8.636;2023-04-22T00:45:21;12.49;81.89
25945;SHT31;13742;49.306;8.636;2023-04-22T00:46:21;12.48;81.77
25945;SHT31;13742;49.306;8.636;2023-04-22T00:47:21;12.48;81.61
25945;SHT31;13742;49.306;8.636;2023-04-22T00:48:21;12.46;81.64
25945;SHT31;13742;49.306;8.636;2023-04-22T00:49:21;12.48;81.86
25945;SHT31;13742;49.306;8.636;2023-04-22T00:50:21;12.48;82.05
25945;SHT31;13742;49.306;8.636;2023-04-22T00:51:21;12.49;81.85
25945;SHT31;13742;49.306;8.636;2023-04-22T00:52:21;12.49;81.75
25945;SHT31;13742;49.306;8.636;2023-04-22T00:53:21;12.46;81.85
25945;SHT31;13742;49.306;8.636;2023-04-22T00:54:21;12.48;82.00
25945;SHT31;13742;49.306;8.636;2023-04-22T00:55:21;12.46;82.01
25945;SHT31;13742;49.306;8.636;2023-04-22T00:56:21;12.46;82.10
25945;SHT31;13742;49.306;8.636;2023-04-22T00:57:21;12.46;81.68
25945;SHT31;13742;49.306;8.636;2023-04-22T00:58:22;12.48;81.83
25945;SHT31;13742;49.306;8.636;2023-04-22T00:59:22;12.45;81.85
25945;SHT31;13742;49.306;8.636;2023-04-22T01:00:27;12.46;81.93
25945;SHT31;13742;49.306;8.636;2023-04-22T01:01:21;12.46;82.11
25945;SHT31;13742;49.306;8.636;2023-04-22T01:02:21;12.48;81.92
25945;SHT31;13742;49.306;8.636;2023-04-22T01:03:21;12.51;81.97
25945;SHT31;13742;49.306;8.636;2023-04-22T01:04:21;12.48;81.87
25945;SHT31;13742;49.306;8.636;2023-04-22T01:05:21;12.45;81.86
25945;SHT31;13742;49.306;8.636;2023-04-22T01:06:21;12.51;81.71
25945;SHT31;13742;49.306;8.636;2023-04-22T01:07:21;12.46;81.66
25945;SHT31;13742;49.306;8.636;2023-04-22T01:08:21;12.48;81.59
25945;SHT31;13742;49.306;8.636;2023-04-22T01:09:21;12.46;81.65
25945;SHT31;13742;49.306;8.636;2023-04-22T01:10:21;12.48;81.65
25945;SHT31;13742;49.306;8.636;2023-04-22T01:11:23;12.48;81.44
25945;SHT31;13742;49.306;8.636;2023-04-22T01:12:21;12.48;81.54
25945;SHT31;13742;49.306;8.636;2023-04-22T01:13:21;12.46;81.38
25945;SHT31;13742;49.306;8.636;2023-04-22T01:14:21;12.48;81.62
25945;SHT31;13742;49.306;8.636;2023-04-22T01:15:21;12.46;81.62
25945;SHT31;13742;49.306;8.636;2023-04-22T01:16:21;12.49;81.55
25945;SHT31;13742;49.306;8.636;2023-04-22T01:17:23;12.45;81.57
25945;SHT31;13742;49.306;8.636;2023-04-22T01:18:21;12.45;81.61
25945;SHT31;13742;49.306;8.636;2023-04-22T01:19:21;12.46;81.65
25945;SHT31;13742;49.306;8.636;2023-04-22T01:20:21;12.46;81.40
25945;SHT31;13742;49.306;8.636;2023-04-22T01:21:21;12.45;81.55
25945;SHT31;13742;49.306;8.636;2023-04-22T01:22:21;12.46;81.41
25945;SHT31;13742;49.306;8.636;2023-04-22T01:23:21;12.46;81.51
25945;SHT31;13742;49.306;8.636;2023-04-22T01:24:21;12.48;81.46
25945;SHT31;13742;49.306;8.636;2023-04-22T01:25:21;12.46;81.49
25945;SHT31;13742;49.306;8.636;2023-04-22T01:26:21;12.45;81.59
25945;SHT31;13742;49.306;8.636;2023-04-22T01:27:21;12.48;81.55
25945;SHT31;13742;49.306;8.636;2023-04-22T01:28:22;12.48;81.44
25945;SHT31;13742;49.306;8.636;2023-04-22T01:29:21;12.46;81.39
25945;SHT31;13742;49.306;8.636;2023-04-22T01:30:21;12.48;81.42
25945;SHT31;13742;49.306;8.636;2023-04-22T01:31:21;12.43;81.42
25945;SHT31;13742;49.306;8.636;2023-04-22T01:32:21;12.43;81.37
25945;SHT31;13742;49.306;8.636;2023-04-22T01:33:21;12.43;81.42
25945;SHT31;13742;49.306;8.636;2023-04-22T01:34:21;12.42;81.57
25945;SHT31;13742;49.306;8.636;2023-04-22T01:35:21;12.45;81.67
25945;SHT31;13742;49.306;8.636;2023-04-22T01:36:21;12.43;81.77
25945;SHT31;13742;49.306;8.636;2023-04-22T01:37:21;12.41;81.68
25945;SHT31;13742;49.306;8.636;2023-04-22T01:38:21;12.42;81.78
25945;SHT31;13742;49.306;8.636;2023-04-22T01:39:21;12.42;81.64
25945;SHT31;13742;49.306;8.636;2023-04-22T01:40:21;12.41;81.52
25945;SHT31;13742;49.306;8.636;2023-04-22T01:41:21;12.42;81.70
25945;SHT31;13742;49.306;8.636;2023-04-22T01:42:21;12.42;81.72
25945;SHT31;13742;49.306;8.636;2023-04-22T01:43:21;12.41;81.90
25945;SHT31;13742;49.306;8.636;2023-04-22T01:44:21;12.41;81.77
25945;SHT31;13742;49.306;8.636;2023-04-22T01:45:21;12.39;81.71
25945;SHT31;13742;49.306;8.636;2023-04-22T01:46:21;12.41;81.77
25945;SHT31;13742;49.306;8.636;2023-04-22T01:47:21;12.41;81.76
25945;SHT31;13742;49.306;8.636;2023-04-22T01:48:21;12.39;81.95
25945;SHT31;13742;49.306;8.636;2023-04-22T01:49:21;12.42;81.91
25945;SHT31;13742;49.306;8.636;2023-04-22T01:50:21;12.42;81.75
25945;SHT31;13742;49.306;8.636;2023-04-22T01:51:21;12.42;81.56
25945;SHT31;13742;49.306;8.636;2023-04-22T01:52:21;12.42;81.47
25945;SHT31;13742;49.306;8.636;2023-04-22T01:53:21;12.42;81.29
25945;SHT31;13742;49.306;8.636;2023-04-22T01:54:21;12.43;81.36
25945;SHT31;13742;49.306;8.636;2023-04-22T01:55:21;12.43;81.31
25945;SHT31;13742;49.306;8.636;2023-04-22T01:56:21;12.42;81.44
25945;SHT31;13742;49.306;8.636;2023-04-22T01:57:21;12.42;81.33
25945;SHT31;13742;49.306;8.636;2023-04-22T01:58:21;12.42;81.29
25945;SHT31;13742;49.306;8.636;2023-04-22T01:59:21;12.43;81.44
25945;SHT31;13742;49.306;8.636;2023-04-22T02:00:21;12.41;81.46
25945;SHT31;13742;49.306;8.636;2023-04-22T02:01:21;12.39;81.40
25945;SHT31;13742;49.306;8.636;2023-04-22T02:02:21;12.41;81.41
25945;SHT31;13742;49.306;8.636;2023-04-22T02:03:21;12.38;81.52
25945;SHT31;13742;49.306;8.636;2023-04-22T02:04:21;12.38;81.53
25945;SHT31;13742;49.306;8.636;2023-04-22T02:05:21;12.38;81.61
25945;SHT31;13742;49.306;8.636;2023-04-22T02:06:21;12.36;81.54
25945;SHT31;13742;49.306;8.636;2023-04-22T02:07:21;12.36;81.70
25945;SHT31;13742;49.306;8.636;2023-04-22T02:08:20;12.38;81.90
25945;SHT31;13742;49.306;8.636;2023-04-22T02:09:20;12.36;81.77
25945;SHT31;13742;49.306;8.636;2023-04-22T02:10:21;12.36;81.72
25945;SHT31;13742;49.306;8.636;2023-04-22T02:11:21;12.35;81.70
25945;SHT31;13742;49.306;8.636;2023-04-22T02:12:20;12.33;81.73
25945;SHT31;13742;49.306;8.636;2023-04-22T02:13:21;12.35;81.88
25945;SHT31;13742;49.306;8.636;2023-04-22T02:14:20;12.31;81.70
25945;SHT31;13742;49.306;8.636;2023-04-22T02:15:21;12.32;81.91
25945;SHT31;13742;49.306;8.636;2023-04-22T02:16:21;12.33;81.69
25945;SHT31;13742;49.306;8.636;2023-04-22T02:17:21;12.33;81.64
25945;SHT31;13742;49.306;8.636;2023-04-22T02:18:21;12.33;81.80
25945;SHT31;13742;49.306;8.636;2023-04-22T02:19:21;12.32;81.83
25945;SHT31;13742;49.306;8.636;2023-04-22T02:20:21;12.32;81.83
25945;SHT31;13742;49.306;8.636;2023-04-22T02:21:21;12.32;81.74
25945;SHT31;13742;49.306;8.636;2023-04-22T02:22:22;12.33;81.80
25945;SHT31;13742;49.306;8.636;2023-04-22T02:23:21;12.29;81.74
25945;SHT31;13742;49.306;8.636;2023-04-22T02:24:21;12.32;81.74
25945;SHT31;13742;49.306;8.636;2023-04-22T02:25:20;12.32;81.67
25945;SHT31;13742;49.306;8.636;2023-04-22T02:26:21;12.33;81.64
25945;SHT31;13742;49.306;8.636;2023-04-22T02:27:21;12.32;81.67
25945;SHT31;13742;49.306;8.636;2023-04-22T02:28:21;12.32;81.50
25945;SHT31;13742;49.306;8.636;2023-04-22T02:29:20;12.31;81.60
25945;SHT31;13742;49.306;8.636;2023-04-22T02:30:21;12.31;81.70
25945;SHT31;13742;49.306;8.636;2023-04-22T02:31:21;12.31;81.61
25945;SHT31;13742;49.306;8.636;2023-04-22T02:32:20;12.29;81.46
25945;SHT31;13742;49.306;8.636;2023-04-22T02:33:21;12.31;81.46
25945;SHT31;13742;49.306;8.636;2023-04-22T02:34:20;12.31;81.36
25945;SHT31;13742;49.306;8.636;2023-04-22T02:35:21;12.31;81.38
25945;SHT31;13742;49.306;8.636;2023-04-22T02:36:21;12.31;81.29
25945;SHT31;13742;49.306;8.636;2023-04-22T02:37:21;12.31;81.24
25945;SHT31;13742;49.306;8.636;2023-04-22T02:38:21;12.29;81.18
25945;SHT31;13742;49.306;8.636;2023-04-22T02:39:21;12.29;81.09
25945;SHT31;13742;49.306;8.636;2023-04-22T02:40:21;12.31;81.09
25945;SHT31;13742;49.306;8.636;2023-04-22T02:41:21;12.31;81.06
25945;SHT31;13742;49.306;8.636;2023-04-22T02:42:21;12.29;80.98
25945;SHT31;13742;49.306;8.636;2023-04-22T02:43:20;12.29;81.21
25945;SHT31;13742;49.306;8.636;2023-04-22T02:44:20;12.29;80.99
25945;SHT31;13742;49.306;8.636;2023-04-22T02:45:21;12.28;80.94
25945;SHT31;13742;49.306;8.636;2023-04-22T02:46:21;12.28;81.15
25945;SHT31;13742;49.306;8.636;2023-04-22T02:47:22;12.28;81.17
25945;SHT31;13742;49.306;8.636;2023-04-22T02:48:20;12.31;81.16
25945;SHT31;13742;49.306;8.636;2023-04-22T02:49:21;12.29;81.22
25945;SHT31;13742;49.306;8.636;2023-04-22T02:50:21;12.28;81.26
25945;SHT31;13742;49.306;8.636;2023-04-22T02:51:21;12.27;81.31
25945;SHT31;13742;49.306;8.636;2023-04-22T02:52:20;12.27;81.27
25945;SHT31;13742;49.306;8.636;2023-04-22T02:53:20;12.28;81.06
25945;SHT31;13742;49.306;8.636;2023-04-22T02:54:20;12.31;81.21
25945;SHT31;13742;49.306;8.636;2023-04-22T02:55:23;12.29;81.10
25945;SHT31;13742;49.306;8.636;2023-04-22T02:56:20;12.29;81.13
25945;SHT31;13742;49.306;8.636;2023-04-22T02:57:21;12.32;81.19
25945;SHT31;13742;49.306;8.636;2023-04-22T02:58:21;12.28;80.98
25945;SHT31;13742;49.306;8.636;2023-04-22T02:59:20;12.29;81.25
25945;SHT31;13742;49.306;8.636;2023-04-22T03:00:21;12.31;81.01
25945;SHT31;13742;49.306;8.636;2023-04-22T03:01:20;12.29;81.07
25945;SHT31;13742;49.306;8.636;2023-04-22T03:02:21;12.28;80.92
25945;SHT31;13742;49.306;8.636;2023-04-22T03:03:21;12.29;80.91
25945;SHT31;13742;49.306;8.636;2023-04-22T03:04:21;12.28;80.91
25945;SHT31;13742;49.306;8.636;2023-04-22T03:05:21;12.28;80.96
25945;SHT31;13742;49.306;8.636;2023-04-22T03:06:21;12.25;80.88
25945;SHT31;13742;49.306;8.636;2023-04-22T03:07:20;12.28;80.90
25945;SHT31;13742;49.306;8.636;2023-04-22T03:08:21;12.28;80.82
25945;SHT31;13742;49.306;8.636;2023-04-22T03:09:20;12.28;80.70
25945;SHT31;13742;49.306;8.636;2023-04-22T03:10:20;12.27;80.66
25945;SHT31;13742;49.306;8.636;2023-04-22T03:11:20;12.27;80.77
25945;SHT31;13742;49.306;8.636;2023-04-22T03:12:21;12.27;80.66
25945;SHT31;13742;49.306;8.636;2023-04-22T03:13:20;12.25;80.64
25945;SHT31;13742;49.306;8.636;2023-04-22T03:14:20;12.24;80.75
25945;SHT31;13742;49.306;8.636;2023-04-22T03:15:20;12.27;80.80
25945;SHT31;13742;49.306;8.636;2023-04-22T03:16:22;12.24;80.72
25945;SHT31;13742;49.306;8.636;2023-04-22T03:17:21;12.25;80.76
25945;SHT31;13742;49.306;8.636;2023-04-22T03:18:21;12.22;80.77
25945;SHT31;13742;49.306;8.636;2023-04-22T03:19:20;12.25;80.84
25945;SHT31;13742;49.306;8.636;2023-04-22T03:20:20;12.24;80.70
25945;SHT31;13742;49.306;8.636;2023-04-22T03:21:20;12.24;80.69
25945;SHT31;13742;49.306;8.636;2023-04-22T03:22:20;12.24;80.76
25945;SHT31;13742;49.306;8.636;2023-04-22T03:23:20;12.24;80.70
25945;SHT31;13742;49.306;8.636;2023-04-22T03:24:20;12.25;80.52
25945;SHT31;13742;49.306;8.636;2023-04-22T03:25:20;12.22;80.50
25945;SHT31;13742;49.306;8.636;2023-04-22T03:26:21;12.21;80.58
25945;SHT31;13742;49.306;8.636;2023-04-22T03:27:20;12.21;80.47
25945;SHT31;13742;49.306;8.636;2023-04-22T03:28:20;12.21;80.39
25945;SHT31;13742;49.306;8.636;2023-04-22T03:29:20;12.20;80.50
25945;SHT31;13742;49.306;8.636;2023-04-22T03:30:21;12.21;80.58
25945;SHT31;13742;49.306;8.636;2023-04-22T03:31:20;12.18;80.47
25945;SHT31;13742;49.306;8.636;2023-04-22T03:32:20;12.18;80.48
25945;SHT31;13742;49.306;8.636;2023-04-22T03:33:21;12.20;80.55
25945;SHT31;13742;49.306;8.636;2023-04-22T03:34:21;12.18;80.60
25945;SHT31;13742;49.306;8.636;2023-04-22T03:35:20;12.17;80.55
25945;SHT31;13742;49.306;8.636;2023-04-22T03:36:20;12.17;80.47
25945;SHT31;13742;49.306;8.636;2023-04-22T03:37:20;12.15;80.61
25945;SHT31;13742;49.306;8.636;2023-04-22T03:38:20;12.17;80.53
25945;SHT31;13742;49.306;8.636;2023-04-22T03:39:20;12.14;80.51
25945;SHT31;13742;49.306;8.636;2023-04-22T03:40:21;12.14;80.47
25945;SHT31;13742;49.306;8.636;2023-04-22T03:41:20;12.12;80.62
25945;SHT31;13742;49.306;8.636;2023-04-22T03:42:20;12.09;80.59
25945;SHT31;13742;49.306;8.636;2023-04-22T03:43:20;12.09;80.44
25945;SHT31;13742;49.306;8.636;2023-04-22T03:44:20;12.11;80.54
25945;SHT31;13742;49.306;8.636;2023-04-22T03:45:20;12.09;80.59
25945;SHT31;13742;49.306;8.636;2023-04-22T03:46:20;12.09;80.70
25945;SHT31;13742;49.306;8.636;2023-04-22T03:47:20;12.06;80.49
25945;SHT31;13742;49.306;8.636;2023-04-22T03:48:20;12.08;80.45
25945;SHT31;13742;49.306;8.636;2023-04-22T03:49:20;12.08;80.54
25945;SHT31;13742;49.306;8.636;2023-04-22T03:50:21;12.06;80.55
25945;SHT31;13742;49.306;8.636;2023-04-22T03:51:20;12.08;80.74
25945;SHT31;13742;49.306;8.636;2023-04-22T03:52:20;12.05;80.50
25945;SHT31;13742;49.306;8.636;2023-04-22T03:53:20;12.06;80.35
25945;SHT31;13742;49.306;8.636;2023-04-22T03:54:20;12.08;80.28
25945;SHT31;13742;49.306;8.636;2023-04-22T03:55:21;12.02;80.41
25945;SHT31;13742;49.306;8.636;2023-04-22T03:56:20;12.05;80.37
25945;SHT31;13742;49.306;8.636;2023-04-22T03:57:20;12.02;80.67
25945;SHT31;13742;49.306;8.636;2023-04-22T03:58:20;12.02;80.65
25945;SHT31;13742;49.306;8.636;2023-04-22T03:59:20;12.01;80.62
25945;SHT31;13742;49.306;8.636;2023-04-22T04:00:20;12.01;80.41
25945;SHT31;13742;49.306;8.636;2023-04-22T04:01:22;12.00;80.37
25945;SHT31;13742;49.306;8.636;2023-04-22T04:02:20;12.00;80.38
25945;SHT31;13742;49.306;8.636;2023-04-22T04:03:21;12.01;80.45
25945;SHT31;13742;49.306;8.636;2023-04-22T04:04:22;12.01;80.25
25945;SHT31;13742;49.306;8.636;2023-04-22T04:05:20;12.00;80.33
25945;SHT31;13742;49.306;8.636;2023-04-22T04:06:20;11.95;80.27
25945;SHT31;13742;49.306;8.636;2023-04-22T04:07:20;11.98;80.53
25945;SHT31;13742;49.306;8.636;2023-04-22T04:08:21;12.01;80.26
25945;SHT31;13742;49.306;8.636;2023-04-22T04:09:20;12.00;80.22
25945;SHT31;13742;49.306;8.636;2023-04-22T04:10:20;12.01;80.25
25945;SHT31;13742;49.306;8.636;2023-04-22T04:11:20;11.98;80.24
25945;SHT31;13742;49.306;8.636;2023-04-22T04:12:20;12.00;80.00
25945;SHT31;13742;49.306;8.636;2023-04-22T04:13:21;11.97;80.11
25945;SHT31;13742;49.306;8.636;2023-04-22T04:14:20;11.98;80.17
25945;SHT31;13742;49.306;8.636;2023-04-22T04:15:20;11.97;80.18
25945;SHT31;13742;49.306;8.636;2023-04-22T04:16:20;11.97;80.10
25945;SHT31;13742;49.306;8.636;2023-04-22T04:17:24;11.97;80.10
25945;SHT31;13742;49.306;8.636;2023-04-22T04:18:20;12.00;80.18
25945;SHT31;13742;49.306;8.636;2023-04-22T04:19:20;11.97;80.12
25945;SHT31;13742;49.306;8.636;2023-04-22T04:20:21;11.98;80.05
25945;SHT31;13742;49.306;8.636;2023-04-22T04:21:20;11.98;80.09
25945;SHT31;13742;49.306;8.636;2023-04-22T04:22:20;11.97;79.92
25945;SHT31;13742;49.306;8.636;2023-04-22T04:23:20;11.94;80.02
25945;SHT31;13742;49.306;8.636;2023-04-22T04:24:20;11.95;79.97
25945;SHT31;13742;49.306;8.636;2023-04-22T04:25:21;11.94;80.09
25945;SHT31;13742;49.306;8.636;2023-04-22T04:26:21;11.94;80.05
25945;SHT31;13742;49.306;8.636;2023-04-22T04:27:23;11.94;80.20
25945;SHT31;13742;49.306;8.636;2023-04-22T04:28:21;11.92;80.04
25945;SHT31;13742;49.306;8.636;2023-04-22T04:29:22;11.95;80.15
25945;SHT31;13742;49.306;8.636;2023-04-22T04:30:20;11.94;80.09
25945;SHT31;13742;49.306;8.636;2023-04-22T04:31:20;11.94;80.09
25945;SHT31;13742;49.306;8.636;2023-04-22T04:32:21;11.92;80.19
25945;SHT31;13742;49.306;8.636;2023-04-22T04:33:20;11.92;80.21
25945;SHT31;13742;49.306;8.636;2023-04-22T04:34:20;11.92;80.19
25945;SHT31;13742;49.306;8.636;2023-04-22T04:35:20;11.92;80.17
25945;SHT31;13742;49.306;8.636;2023-04-22T04:36:20;11.92;80.29
25945;SHT31;13742;49.306;8.636;2023-04-22T04:37:21;11.92;80.16
25945;SHT31;13742;49.306;8.636;2023-04-22T04:38:20;11.91;80.07
25945;SHT31;13742;49.306;8.636;2023-04-22T04:39:20;11.94;80.14
25945;SHT31;13742;49.306;8.636;2023-04-22T04:40:21;11.94;80.01
25945;SHT31;13742;49.306;8.636;2023-04-22T04:41:20;11.92;79.98
25945;SHT31;13742;49.306;8.636;2023-04-22T04:42:24;11.94;79.93
25945;SHT31;13742;49.306;8.636;2023-04-22T04:43:24;11.92;80.04
25945;SHT31;13742;49.306;8.636;2023-04-22T04:44:21;11.92;79.94
25945;SHT31;13742;49.306;8.636;2023-04-22T04:45:22;11.92;79.98
25945;SHT31;13742;49.306;8.636;2023-04-22T04:46:20;11.92;79.92
25945;SHT31;13742;49.306;8.636;2023-04-22T04:47:21;11.97;80.02
25945;SHT31;13742;49.306;8.636;2023-04-22T04:48:23;11.92;79.92
25945;SHT31;13742;49.306;8.636;2023-04-22T04:49:20;11.95;79.95
25945;SHT31;13742;49.306;8.636;2023-04-22T04:50:21;11.95;79.99
25945;SHT31;13742;49.306;8.636;2023-04-22T04:51:20;11.95;79.89
25945;SHT31;13742;49.306;8.636;2023-04-22T04:52:20;11.92;79.84
25945;SHT31;13742;49.306;8.636;2023-04-22T04:53:20;11.97;79.93
25945;SHT31;13742;49.306;8.636;2023-04-22T04:54:20;11.94;79.87
25945;SHT31;13742;49.306;8.636;2023-04-22T04:55:20;11.92;79.91
25945;SHT31;13742;49.306;8.636;2023-04-22T04:56:20;11.94;79.91
25945;SHT31;13742;49.306;8.636;2023-04-22T04:57:20;11.91;80.02
25945;SHT31;13742;49.306;8.636;2023-04-22T04:58:20;11.95;80.30
25945;SHT31;13742;49.306;8.636;2023-04-22T04:59:20;11.91;80.39
25945;SHT31;13742;49.306;8.636;2023-04-22T05:00:20;11.92;80.37
25945;SHT31;13742;49.306;8.636;2023-04-22T05:01:21;11.92;80.33
25945;SHT31;13742;49.306;8.636;2023-04-22T05:02:20;11.90;80.39
25945;SHT31;13742;49.306;8.636;2023-04-22T05:03:20;11.91;80.47
25945;SHT31;13742;49.306;8.636;2023-04-22T05:04:20;11.92;80.52
25945;SHT31;13742;49.306;8.636;2023-04-22T05:05:20;11.90;80.78
25945;SHT31;13742;49.306;8.636;2023-04-22T05:06:21;11.91;80.63
25945;SHT31;13742;49.306;8.636;2023-04-22T05:07:20;11.88;80.56
25945;SHT31;13742;49.306;8.636;2023-04-22T05:08:20;11.90;80.46
25945;SHT31;13742;49.306;8.636;2023-04-22T05:09:20;11.90;80.33
25945;SHT31;13742;49.306;8.636;2023-04-22T05:10:20;11.88;80.42
25945;SHT31;13742;49.306;8.636;2023-04-22T05:11:20;11.90;80.26
25945;SHT31;13742;49.306;8.636;2023-04-22T05:12:20;11.88;80.45
25945;SHT31;13742;49.306;8.636;2023-04-22T05:13:21;11.87;80.74
25945;SHT31;13742;49.306;8.636;2023-04-22T05:14:20;11.87;80.48
25945;SHT31;13742;49.306;8.636;2023-04-22T05:15:20;11.87;80.60
25945;SHT31;13742;49.306;8.636;2023-04-22T05:16:20;11.87;80.53
25945;SHT31;13742;49.306;8.636;2023-04-22T05:17:20;11.87;80.62
25945;SHT31;13742;49.306;8.636;2023-04-22T05:18:20;11.87;80.61
25945;SHT31;13742;49.306;8.636;2023-04-22T05:19:20;11.87;81.19
25945;SHT31;13742;49.306;8.636;2023-04-22T05:20:20;11.85;81.26
25945;SHT31;13742;49.306;8.636;2023-04-22T05:21:20;11.87;81.07
25945;SHT31;13742;49.306;8.636;2023-04-22T05:22:20;11.85;81.09
25945;SHT31;13742;49.306;8.636;2023-04-22T05:23:20;11.88;81.09
25945;SHT31;13742;49.306;8.636;2023-04-22T05:24:20;11.87;81.24
25945;SHT31;13742;49.306;8.636;2023-04-22T05:25:20;11.85;81.36
25945;SHT31;13742;49.306;8.636;2023-04-22T05:26:20;11.87;81.13
25945;SHT31;13742;49.306;8.636;2023-04-22T05:27:20;11.84;81.28
25945;SHT31;13742;49.306;8.636;2023-04-22T05:28:20;11.85;81.38
25945;SHT31;13742;49.306;8.636;2023-04-22T05:29:20;11.87;81.42
25945;SHT31;13742;49.306;8.636;2023-04-22T05:30:21;11.83;81.18
25945;SHT31;13742;49.306;8.636;2023-04-22T05:31:20;11.87;81.31
25945;SHT31;13742;49.306;8.636;2023-04-22T05:32:20;11.85;81.07
25945;SHT31;13742;49.306;8.636;2023-04-22T05:33:20;11.83;81.60
25945;SHT31;13742;49.306;8.636;2023-04-22T05:34:20;11.84;81.41
25945;SHT31;13742;49.306;8.636;2023-04-22T05:35:20;11.84;81.53
25945;SHT31;13742;49.306;8.636;2023-04-22T05:36:20;11.84;81.58
25945;SHT31;13742;49.306;8.636;2023-04-22T05:37:20;11.83;81.72
25945;SHT31;13742;49.306;8.636;2023-04-22T05:38:20;11.81;81.56
25945;SHT31;13742;49.306;8.636;2023-04-22T05:39:20;11.83;81.41
25945;SHT31;13742;49.306;8.636;2023-04-22T05:40:20;11.84;81.34
25945;SHT31;13742;49.306;8.636;2023-04-22T05:41:20;11.81;81.49
25945;SHT31;13742;49.306;8.636;2023-04-22T05:42:20;11.80;81.80
25945;SHT31;13742;49.306;8.636;2023-04-22T05:43:20;11.78;81.60
25945;SHT31;13742;49.306;8.636;2023-04-22T05:44:20;11.78;81.75
25945;SHT31;13742;49.306;8.636;2023-04-22T05:45:21;11.80;82.05
25945;SHT31;13742;49.306;8.636;2023-04-22T05:46:20;11.77;82.10
25945;SHT31;13742;49.306;8.636;2023-04-22T05:47:20;11.74;82.33
25945;SHT31;13742;49.306;8.636;2023-04-22T05:48:20;11.74;82.13
25945;SHT31;13742;49.306;8.636;2023-04-22T05:49:20;11.73;82.34
25945;SHT31;13742;49.306;8.636;2023-04-22T05:50:20;11.74;82.43
25945;SHT31;13742;49.306;8.636;2023-04-22T05:51:21;11.74;82.34
25945;SHT31;13742;49.306;8.636;2023-04-22T05:52:20;11.73;82.28
25945;SHT31;13742;49.306;8.636;2023-04-22T05:53:20;11.74;82.39
25945;SHT31;13742;49.306;8.636;2023-04-22T05:54:20;11.71;82.29
25945;SHT31;13742;49.306;8.636;2023-04-22T05:55:20;11.73;82.14
25945;SHT31;13742;49.306;8.636;2023-04-22T05:56:20;11.77;82.22
25945;SHT31;13742;49.306;8.636;2023-04-22T05:57:20;11.74;82.18
25945;SHT31;13742;49.306;8.636;2023-04-22T05:58:20;11.73;82.21
25945;SHT31;13742;49.306;8.636;2023-04-22T05:59:20;11.76;82.20
25945;SHT31;13742;49.306;8.636;2023-04-22T06:00:20;11.74;81.90
25945;SHT31;13742;49.306;8.636;2023-04-22T06:01:20;11.76;82.08
25945;SHT31;13742;49.306;8.636;2023-04-22T06:02:20;11.76;82.30
25945;SHT31;13742;49.306;8.636;2023-04-22T06:03:20;11.76;82.49
25945;SHT31;13742;49.306;8.636;2023-04-22T06:04:20;11.76;82.52
25945;SHT31;13742;49.306;8.636;2023-04-22T06:05:20;11.77;82.44
25945;SHT31;13742;49.306;8.636;2023-04-22T06:06:20;11.76;82.39
25945;SHT31;13742;49.306;8.636;2023-04-22T06:07:20;11.77;82.44
25945;SHT31;13742;49.306;8.636;2023-04-22T06:08:21;11.81;82.42
25945;SHT31;13742;49.306;8.636;2023-04-22T06:09:21;11.85;82.52
25945;SHT31;13742;49.306;8.636;2023-04-22T06:10:20;11.83;82.50
25945;SHT31;13742;49.306;8.636;2023-04-22T06:11:21;11.85;82.36
25945;SHT31;13742;49.306;8.636;2023-04-22T06:12:21;11.88;82.31
25945;SHT31;13742;49.306;8.636;2023-04-22T06:13:20;11.91;82.41
25945;SHT31;13742;49.306;8.636;2023-04-22T06:14:20;11.91;82.63
25945;SHT31;13742;49.306;8.636;2023-04-22T06:15:20;11.94;82.52
25945;SHT31;13742;49.306;8.636;2023-04-22T06:16:21;11.95;82.22
25945;SHT31;13742;49.306;8.636;2023-04-22T06:17:20;11.97;82.15
25945;SHT31;13742;49.306;8.636;2023-04-22T06:18:20;12.01;82.40